createdAt,value
2022-11-26T00:02:28.065Z,100.00
2022-11-26T00:05:02.572Z,100.00
2022-11-26T00:07:36.056Z,100.00
2022-11-26T00:10:19.108Z,100.00
2022-11-26T00:12:50.304Z,100.00
2022-11-26T00:15:25.255Z,100.00
2022-11-26T00:17:57.900Z,100.00
2022-11-26T00:20:31.545Z,100.00
2022-11-26T00:23:05.501Z,100.00
2022-11-26T00:25:44.678Z,100.00
2022-11-26T00:28:27.324Z,100.00
2022-11-26T00:31:01.922Z,100.00
2022-11-26T00:33:36.454Z,100.00
2022-11-26T00:36:18.719Z,100.00
2022-11-26T00:38:55.173Z,100.00
2022-11-26T00:41:30.973Z,100.00
2022-11-26T00:44:03.944Z,100.00
2022-11-26T00:46:37.112Z,100.00
2022-11-26T00:49:10.228Z,100.00
2022-11-26T00:51:44.366Z,100.00
2022-11-26T00:54:20.536Z,100.00
2022-11-26T00:56:53.968Z,100.00
2022-11-26T00:59:26.918Z,100.00
2022-11-26T01:01:57.250Z,100.00
2022-11-26T01:04:29.423Z,100.00
2022-11-26T01:07:01.863Z,100.00
2022-11-26T01:09:34.635Z,100.00
2022-11-26T01:12:14.043Z,100.00
2022-11-26T01:14:46.386Z,100.00
2022-11-26T01:17:18.939Z,100.00
2022-11-26T01:19:50.896Z,100.00
2022-11-26T01:22:25.571Z,100.00
2022-11-26T01:24:57.732Z,100.00
2022-11-26T01:27:30.846Z,100.00
2022-11-26T01:30:02.964Z,100.00
2022-11-26T01:32:35.520Z,100.00
2022-11-26T01:35:06.843Z,100.00
2022-11-26T01:37:39.495Z,100.00
2022-11-26T01:40:40.440Z,100.00
2022-11-26T01:43:25.178Z,100.00
2022-11-26T01:45:59.908Z,100.00
2022-11-26T01:48:35.183Z,100.00
2022-11-26T01:51:11.742Z,100.00
2022-11-26T01:53:52.926Z,100.00
2022-11-26T01:56:32.242Z,100.00
2022-11-26T01:59:09.939Z,100.00
2022-11-26T02:01:42.397Z,100.00
2022-11-26T02:04:14.897Z,100.00
2022-11-26T02:06:50.581Z,100.00
2022-11-26T02:09:26.050Z,100.00
2022-11-26T02:11:58.768Z,100.00
2022-11-26T02:14:35.820Z,100.00
2022-11-26T02:17:26.345Z,100.00
2022-11-26T02:20:36.402Z,100.00
2022-11-26T02:23:52.636Z,100.00
2022-11-26T02:26:49.470Z,100.00
2022-11-26T02:29:30.506Z,100.00
2022-11-26T02:32:10.137Z,100.00
2022-11-26T02:34:49.755Z,100.00
2022-11-26T02:37:26.616Z,100.00
2022-11-26T02:39:59.275Z,100.00
2022-11-26T02:42:33.136Z,100.00
2022-11-26T02:45:09.026Z,100.00
2022-11-26T02:47:47.032Z,100.00
2022-11-26T02:50:23.359Z,100.00
2022-11-26T02:52:58.502Z,100.00
2022-11-26T02:55:36.658Z,100.00
2022-11-26T02:58:09.862Z,100.00
2022-11-26T03:00:43.166Z,100.00
2022-11-26T03:03:23.969Z,100.00
2022-11-26T03:05:59.127Z,100.00
2022-11-26T03:08:32.751Z,100.00
2022-11-26T03:11:06.207Z,100.00
2022-11-26T03:13:39.068Z,100.00
2022-11-26T03:16:13.456Z,100.00
2022-11-26T03:18:46.438Z,100.00
2022-11-26T03:21:18.533Z,100.00
2022-11-26T03:23:50.457Z,100.00
2022-11-26T03:26:22.867Z,100.00
2022-11-26T03:28:53.986Z,100.00
2022-11-26T03:31:26.880Z,100.00
2022-11-26T03:33:59.777Z,100.00
2022-11-26T03:36:33.556Z,100.00
2022-11-26T03:39:06.495Z,100.00
2022-11-26T03:41:38.807Z,100.00
2022-11-26T03:44:10.662Z,100.00
2022-11-26T03:46:44.055Z,100.00
2022-11-26T03:49:17.542Z,100.00
2022-11-26T03:51:50.285Z,100.00
2022-11-26T03:54:21.229Z,100.00
2022-11-26T03:56:54.138Z,100.00
2022-11-26T03:59:27.266Z,100.00
2022-11-26T04:01:59.437Z,100.00
2022-11-26T04:04:32.666Z,100.00
2022-11-26T04:07:04.506Z,100.00
2022-11-26T04:09:36.503Z,100.00
2022-11-26T04:12:09.161Z,100.00
2022-11-26T04:14:41.166Z,100.00
2022-11-26T04:17:13.406Z,100.00
2022-11-26T04:19:45.097Z,100.00
2022-11-26T04:22:17.458Z,100.00
2022-11-26T04:24:49.129Z,100.00
2022-11-26T04:27:21.994Z,100.00
2022-11-26T04:29:53.872Z,100.00
2022-11-26T04:32:25.694Z,100.00
2022-11-26T04:34:57.489Z,100.00
2022-11-26T04:37:29.341Z,100.00
2022-11-26T04:40:01.516Z,100.00
2022-11-26T04:42:34.676Z,100.00
2022-11-26T04:45:08.207Z,100.00
2022-11-26T04:47:42.958Z,100.00
2022-11-26T04:50:15.786Z,100.00
2022-11-26T04:52:48.619Z,100.00
2022-11-26T04:55:22.413Z,100.00
2022-11-26T04:57:55.091Z,100.00
2022-11-26T05:00:27.180Z,100.00
2022-11-26T05:02:59.186Z,100.00
2022-11-26T05:05:31.115Z,100.00
2022-11-26T05:08:03.053Z,100.00
2022-11-26T05:10:36.305Z,100.00
2022-11-26T05:13:08.350Z,100.00
2022-11-26T05:15:40.198Z,100.00
2022-11-26T05:18:12.351Z,100.00
2022-11-26T05:20:45.300Z,100.00
2022-11-26T05:23:17.415Z,100.00
2022-11-26T05:25:51.483Z,100.00
2022-11-26T05:28:23.433Z,100.00
2022-11-26T05:31:02.972Z,100.00
2022-11-26T05:33:34.961Z,100.00
2022-11-26T05:36:08.174Z,100.00
2022-11-26T05:38:40.704Z,100.00
2022-11-26T05:41:12.893Z,100.00
2022-11-26T05:43:45.984Z,100.00
2022-11-26T05:46:22.313Z,100.00
2022-11-26T05:48:54.914Z,100.00
2022-11-26T05:51:26.792Z,100.00
2022-11-26T05:53:59.171Z,100.00
2022-11-26T05:56:32.446Z,100.00
2022-11-26T05:59:05.203Z,100.00
2022-11-26T06:01:37.803Z,100.00
2022-11-26T06:04:10.034Z,100.00
2022-11-26T06:06:42.496Z,100.00
2022-11-26T06:09:14.970Z,100.00
2022-11-26T06:11:46.888Z,100.00
2022-11-26T06:14:20.256Z,100.00
2022-11-26T06:16:52.828Z,100.00
2022-11-26T06:19:27.129Z,100.00
2022-11-26T06:22:00.250Z,100.00
2022-11-26T06:24:33.903Z,100.00
2022-11-26T06:27:06.440Z,100.00
2022-11-26T06:29:40.508Z,100.00
2022-11-26T06:32:12.709Z,100.00
2022-11-26T06:34:45.547Z,100.00
2022-11-26T06:37:20.513Z,100.00
2022-11-26T06:39:51.151Z,100.00
2022-11-26T06:42:24.206Z,100.00
2022-11-26T06:44:59.794Z,100.00
2022-11-26T06:47:33.545Z,100.00
2022-11-26T06:50:10.699Z,100.00
2022-11-26T06:52:45.199Z,100.00
2022-11-26T06:55:17.869Z,100.00
2022-11-26T06:57:53.523Z,100.00
2022-11-26T07:00:28.315Z,100.00
2022-11-26T07:03:02.600Z,100.00
2022-11-26T07:05:36.578Z,100.00
2022-11-26T07:08:10.331Z,100.00
2022-11-26T07:10:48.709Z,100.00
2022-11-26T07:13:21.417Z,100.00
2022-11-26T07:15:54.519Z,100.00
2022-11-26T07:18:27.318Z,100.00
2022-11-26T07:21:07.488Z,100.00
2022-11-26T07:23:40.607Z,100.00
2022-11-26T07:26:15.304Z,100.00
2022-11-26T07:28:49.009Z,100.00
2022-11-26T07:31:23.677Z,100.00
2022-11-26T07:33:57.160Z,100.00
2022-11-26T07:36:31.364Z,100.00
2022-11-26T07:39:05.620Z,100.00
2022-11-26T07:41:37.993Z,100.00
2022-11-26T07:44:15.106Z,100.00
2022-11-26T07:46:47.771Z,100.00
2022-11-26T07:49:20.615Z,100.00
2022-11-26T07:51:51.465Z,100.00
2022-11-26T07:54:24.445Z,100.00
2022-11-26T07:56:57.252Z,100.00
2022-11-26T07:59:30.524Z,100.00
2022-11-26T08:02:03.839Z,100.00
2022-11-26T08:04:36.801Z,100.00
2022-11-26T08:07:12.050Z,100.00
2022-11-26T08:09:48.223Z,100.00
2022-11-26T08:12:21.681Z,100.00
2022-11-26T08:14:54.860Z,100.00
2022-11-26T08:17:27.870Z,100.00
2022-11-26T08:20:00.394Z,100.00
2022-11-26T08:22:34.028Z,100.00
2022-11-26T08:25:08.301Z,100.00
2022-11-26T08:27:40.755Z,100.00
2022-11-26T08:30:15.447Z,100.00
2022-11-26T08:32:47.518Z,100.00
2022-11-26T08:35:34.294Z,100.00
2022-11-26T08:38:13.877Z,100.00
2022-11-26T08:40:45.824Z,100.00
2022-11-26T08:43:18.659Z,100.00
2022-11-26T08:45:57.000Z,100.00
2022-11-26T08:48:32.045Z,100.00
2022-11-26T08:51:10.547Z,100.00
2022-11-26T08:53:43.255Z,100.00
2022-11-26T08:56:16.331Z,100.00
2022-11-26T08:58:49.003Z,100.00
2022-11-26T09:01:24.602Z,100.00
2022-11-26T09:03:58.557Z,100.00
2022-11-26T09:06:32.894Z,100.00
2022-11-26T09:09:15.790Z,100.00
2022-11-26T09:11:51.226Z,100.00
2022-11-26T09:14:26.116Z,100.00
2022-11-26T09:16:59.243Z,100.00
2022-11-26T09:19:31.815Z,100.00
2022-11-26T09:22:04.375Z,100.00
2022-11-26T09:24:36.335Z,100.00
2022-11-26T09:27:11.045Z,100.00
2022-11-26T09:29:43.380Z,100.00
2022-11-26T09:32:25.035Z,100.00
2022-11-26T09:35:00.185Z,100.00
2022-11-26T09:37:33.456Z,100.00
2022-11-26T09:40:05.913Z,100.00
2022-11-26T09:42:53.884Z,100.00
2022-11-26T09:45:39.331Z,100.00
2022-11-26T09:48:16.837Z,100.00
2022-11-26T09:50:52.717Z,100.00
2022-11-26T09:53:28.332Z,100.00
2022-11-26T09:56:02.426Z,100.00
2022-11-26T09:58:41.854Z,100.00
2022-11-26T10:01:19.701Z,100.00
2022-11-26T10:03:53.843Z,100.00
2022-11-26T10:06:39.557Z,100.00
2022-11-26T10:09:44.336Z,100.00
2022-11-26T10:12:56.265Z,100.00
2022-11-26T10:15:38.834Z,100.00
2022-11-26T10:18:24.170Z,100.00
2022-11-26T10:21:12.462Z,100.00
2022-11-26T10:23:49.036Z,100.00
2022-11-26T10:26:25.763Z,100.00
2022-11-26T10:29:08.221Z,100.00
2022-11-26T10:31:47.467Z,100.00
2022-11-26T10:34:29.826Z,100.00
2022-11-26T10:37:03.427Z,100.00
2022-11-26T10:39:35.465Z,100.00
2022-11-26T10:42:14.856Z,100.00
2022-11-26T10:44:47.686Z,100.00
2022-11-26T10:47:34.490Z,100.00
2022-11-26T10:53:25.138Z,100.00
2022-11-26T10:55:59.108Z,100.00
2022-11-26T10:58:34.623Z,100.00
2022-11-26T11:01:08.495Z,100.00
2022-11-26T11:06:44.689Z,100.00
2022-11-26T11:09:33.024Z,100.00
2022-11-26T11:12:23.609Z,100.00
2022-11-26T11:14:56.176Z,100.00
2022-11-26T11:17:33.753Z,100.00
2022-11-26T11:20:27.291Z,100.00
2022-11-26T11:23:06.791Z,100.00
2022-11-26T11:25:41.567Z,100.00
2022-11-26T11:28:20.575Z,100.00
2022-11-26T11:31:05.789Z,100.00
2022-11-26T11:33:38.374Z,100.00
2022-11-26T11:36:22.934Z,100.00
2022-11-26T11:38:56.107Z,100.00
2022-11-26T11:41:32.890Z,100.00
2022-11-26T11:44:14.460Z,99.59
2022-11-26T11:47:24.204Z,99.07
2022-11-26T11:50:20.772Z,99.49
2022-11-26T11:53:17.755Z,99.55
2022-11-26T11:56:19.084Z,99.69
2022-11-26T11:59:22.376Z,100.00
2022-11-26T12:02:17.264Z,99.96
2022-11-26T12:05:04.926Z,99.80
2022-11-26T12:07:49.055Z,99.76
2022-11-26T12:10:33.900Z,99.11
2022-11-26T12:13:14.259Z,99.97
2022-11-26T12:15:54.782Z,99.75
2022-11-26T12:18:32.499Z,99.53
2022-11-26T12:21:11.163Z,99.86
2022-11-26T12:23:49.996Z,99.34
2022-11-26T12:26:32.248Z,98.56
2022-11-26T12:29:11.913Z,98.82
2022-11-26T12:31:48.117Z,99.56
2022-11-26T12:34:30.177Z,99.35
2022-11-26T12:37:06.441Z,99.77
2022-11-26T12:39:51.916Z,99.51
2022-11-26T12:42:31.592Z,99.64
2022-11-26T12:45:19.190Z,99.29
2022-11-26T12:47:59.238Z,99.47
2022-11-26T12:50:40.120Z,100.00
2022-11-26T12:53:23.005Z,99.71
2022-11-26T12:55:56.511Z,98.96
2022-11-26T12:58:45.698Z,98.46
2022-11-26T13:01:17.542Z,99.28
2022-11-26T13:03:49.527Z,98.68
2022-11-26T13:06:33.738Z,98.33
2022-11-26T13:09:22.897Z,97.96
2022-11-26T13:12:05.117Z,97.58
2022-11-26T13:14:42.825Z,98.13
2022-11-26T13:17:17.203Z,98.01
2022-11-26T13:19:53.003Z,98.42
2022-11-26T13:23:04.011Z,98.32
2022-11-26T13:25:53.450Z,98.43
2022-11-26T13:28:37.575Z,99.27
2022-11-26T13:31:29.785Z,99.34
2022-11-26T13:34:17.165Z,99.22
2022-11-26T13:37:11.418Z,99.99
2022-11-26T13:40:04.567Z,99.78
2022-11-26T13:42:44.856Z,99.06
2022-11-26T13:45:58.852Z,98.99
2022-11-26T13:48:40.312Z,99.34
2022-11-26T13:51:19.723Z,98.68
2022-11-26T13:53:57.527Z,98.91
2022-11-26T13:56:32.851Z,99.09
2022-11-26T13:59:14.298Z,98.78
2022-11-26T14:01:47.692Z,98.19
2022-11-26T14:04:54.873Z,98.07
2022-11-26T14:07:27.733Z,98.19
2022-11-26T14:10:02.439Z,98.10
2022-11-26T14:13:11.672Z,97.93
2022-11-26T14:16:10.738Z,98.08
2022-11-26T14:19:08.667Z,98.24
2022-11-26T14:22:03.576Z,98.23
2022-11-26T14:25:05.278Z,98.16
2022-11-26T14:27:40.643Z,98.16
2022-11-26T14:30:29.938Z,98.13
2022-11-26T14:33:13.035Z,98.50
2022-11-26T14:35:56.885Z,98.56
2022-11-26T14:38:34.867Z,98.54
2022-11-26T14:41:06.792Z,98.08
2022-11-26T14:43:39.512Z,98.27
2022-11-26T14:46:17.994Z,98.58
2022-11-26T14:48:51.020Z,98.78
2022-11-26T14:51:28.033Z,98.72
2022-11-26T14:54:02.442Z,98.47
2022-11-26T14:56:41.810Z,98.28
2022-11-26T14:59:18.800Z,98.21
2022-11-26T15:01:51.614Z,98.73
2022-11-26T15:04:29.247Z,99.43
2022-11-26T15:07:02.535Z,99.53
2022-11-26T15:09:35.083Z,99.87
2022-11-26T15:12:13.935Z,100.00
2022-11-26T15:14:49.980Z,100.00
2022-11-26T15:17:25.157Z,100.00
2022-11-26T15:19:59.335Z,100.00
2022-11-26T15:22:37.650Z,100.00
2022-11-26T15:25:18.497Z,100.00
2022-11-26T15:27:59.918Z,100.00
2022-11-26T15:30:33.399Z,100.00
2022-11-26T15:33:13.422Z,100.00
2022-11-26T15:35:46.756Z,100.00
2022-11-26T15:38:20.913Z,100.00
2022-11-26T15:40:56.977Z,100.00
2022-11-26T15:43:36.436Z,100.00
2022-11-26T15:46:18.035Z,100.00
2022-11-26T15:48:53.654Z,100.00
2022-11-26T15:51:35.553Z,100.00
2022-11-26T15:54:19.082Z,100.00
2022-11-26T15:56:56.493Z,100.00
2022-11-26T15:59:34.242Z,100.00
2022-11-26T16:02:19.608Z,100.00
2022-11-26T16:04:54.151Z,100.00
2022-11-26T16:07:29.691Z,100.00
2022-11-26T16:10:27.011Z,100.00
2022-11-26T16:13:23.225Z,100.00
2022-11-26T16:16:03.260Z,100.00
2022-11-26T16:18:42.763Z,100.00
2022-11-26T16:21:22.368Z,100.00
2022-11-26T16:24:02.152Z,100.00
2022-11-26T16:26:52.924Z,100.00
2022-11-26T16:29:25.025Z,100.00
2022-11-26T16:31:58.477Z,100.00
2022-11-26T16:34:31.443Z,100.00
2022-11-26T16:37:17.809Z,100.00
2022-11-26T16:39:54.089Z,100.00
2022-11-26T16:42:27.083Z,100.00
2022-11-26T16:45:03.936Z,100.00
2022-11-26T16:47:42.329Z,100.00
2022-11-26T16:50:20.427Z,100.00
2022-11-26T16:52:56.683Z,100.00
2022-11-26T16:55:29.673Z,100.00
2022-11-26T16:58:02.925Z,100.00
2022-11-26T17:00:36.760Z,100.00
2022-11-26T17:03:13.069Z,100.00
2022-11-26T17:05:46.651Z,100.00
2022-11-26T17:08:19.321Z,100.00
2022-11-26T17:10:52.736Z,100.00
2022-11-26T17:13:25.448Z,100.00
2022-11-26T17:15:58.740Z,99.79
2022-11-26T17:18:30.804Z,99.63
2022-11-26T17:21:04.066Z,99.89
2022-11-26T17:23:36.291Z,100.00
2022-11-26T17:26:19.192Z,100.00
2022-11-26T17:28:52.785Z,100.00
2022-11-26T17:31:24.581Z,100.00
2022-11-26T17:33:56.854Z,100.00
2022-11-26T17:36:36.447Z,100.00
2022-11-26T17:39:10.585Z,100.00
2022-11-26T17:41:42.898Z,99.94
2022-11-26T17:44:14.782Z,99.82
2022-11-26T17:47:15.788Z,99.68
2022-11-26T17:49:39.221Z,99.83
2022-11-26T17:52:11.379Z,99.97
2022-11-26T17:54:44.064Z,100.00
2022-11-26T17:57:15.123Z,100.00
2022-11-26T17:59:47.280Z,100.00
2022-11-26T18:02:19.828Z,100.00
2022-11-26T18:04:50.581Z,100.00
2022-11-26T18:07:22.714Z,100.00
2022-11-26T18:09:57.772Z,100.00
2022-11-26T18:12:34.407Z,100.00
2022-11-26T18:15:08.443Z,100.00
2022-11-26T18:17:41.384Z,100.00
2022-11-26T18:20:14.503Z,100.00
2022-11-26T18:22:50.356Z,100.00
2022-11-26T18:25:23.178Z,100.00
2022-11-26T18:27:55.372Z,100.00
2022-11-26T18:30:30.603Z,100.00
2022-11-26T18:33:03.420Z,100.00
2022-11-26T18:35:35.784Z,100.00
2022-11-26T18:38:11.029Z,100.00
2022-11-26T18:40:43.807Z,100.00
2022-11-26T18:43:17.028Z,100.00
2022-11-26T18:45:50.822Z,100.00
2022-11-26T18:48:22.877Z,100.00
2022-11-26T18:51:00.374Z,100.00
2022-11-26T18:53:32.070Z,100.00
2022-11-26T18:56:07.395Z,100.00
2022-11-26T18:58:39.493Z,100.00
2022-11-26T19:01:21.792Z,100.00
2022-11-26T19:03:55.139Z,100.00
2022-11-26T19:06:29.107Z,100.00
2022-11-26T19:09:03.089Z,100.00
2022-11-26T19:11:35.711Z,100.00
2022-11-26T19:14:07.821Z,100.00
2022-11-26T19:16:39.854Z,100.00
2022-11-26T19:19:11.947Z,100.00
2022-11-26T19:21:43.737Z,100.00
2022-11-26T19:24:15.557Z,100.00
2022-11-26T19:26:47.238Z,100.00
2022-11-26T19:29:18.945Z,100.00
2022-11-26T19:31:50.751Z,100.00
2022-11-26T19:34:23.013Z,100.00
2022-11-26T19:36:57.806Z,100.00
2022-11-26T19:39:29.624Z,100.00
2022-11-26T19:42:01.525Z,100.00
2022-11-26T19:44:34.547Z,100.00
2022-11-26T19:47:06.510Z,100.00
2022-11-26T19:49:38.606Z,100.00
2022-11-26T19:52:10.680Z,100.00
2022-11-26T19:54:42.498Z,100.00
2022-11-26T19:57:15.027Z,100.00
2022-11-26T19:59:46.989Z,100.00
2022-11-26T20:02:19.111Z,100.00
2022-11-26T20:04:51.461Z,100.00
2022-11-26T20:07:23.480Z,100.00
2022-11-26T20:09:55.696Z,100.00
2022-11-26T20:12:28.498Z,100.00
2022-11-26T20:15:00.653Z,100.00
2022-11-26T20:17:32.574Z,100.00
2022-11-26T20:20:05.361Z,100.00
2022-11-26T20:22:39.286Z,100.00
2022-11-26T20:25:15.351Z,100.00
2022-11-26T20:27:47.255Z,100.00
2022-11-26T20:30:20.261Z,100.00
2022-11-26T20:32:52.014Z,100.00
2022-11-26T20:35:24.439Z,100.00
2022-11-26T20:37:56.825Z,100.00
2022-11-26T20:40:29.213Z,100.00
2022-11-26T20:43:01.170Z,100.00
2022-11-26T20:45:33.323Z,100.00
2022-11-26T20:48:05.601Z,100.00
2022-11-26T20:50:38.709Z,100.00
2022-11-26T20:53:10.511Z,100.00
2022-11-26T20:55:42.184Z,100.00
2022-11-26T20:58:14.199Z,100.00
2022-11-26T21:00:46.284Z,100.00
2022-11-26T21:03:18.072Z,100.00
2022-11-26T21:05:50.076Z,100.00
2022-11-26T21:08:23.952Z,100.00
2022-11-26T21:10:56.266Z,100.00
2022-11-26T21:13:28.029Z,100.00
2022-11-26T21:16:02.202Z,100.00
2022-11-26T21:18:34.178Z,100.00
2022-11-26T21:21:11.599Z,100.00
2022-11-26T21:23:44.948Z,100.00
2022-11-26T21:26:19.460Z,100.00
2022-11-26T21:28:54.626Z,100.00
2022-11-26T21:31:30.123Z,100.00
2022-11-26T21:34:04.183Z,100.00
2022-11-26T21:36:37.944Z,100.00
2022-11-26T21:39:09.893Z,100.00
2022-11-26T21:41:42.475Z,100.00
2022-11-26T21:44:14.866Z,100.00
2022-11-26T21:46:46.805Z,100.00
2022-11-26T21:49:18.738Z,100.00
2022-11-26T21:51:51.785Z,100.00
2022-11-26T21:54:23.753Z,100.00
2022-11-26T21:56:55.609Z,100.00
2022-11-26T21:59:29.018Z,100.00
2022-11-26T22:02:01.116Z,100.00
2022-11-26T22:04:33.788Z,100.00
2022-11-26T22:07:06.139Z,100.00
2022-11-26T22:09:39.382Z,100.00
2022-11-26T22:12:12.798Z,100.00
2022-11-26T22:14:44.720Z,100.00
2022-11-26T22:17:17.232Z,100.00
2022-11-26T22:19:49.635Z,100.00
2022-11-26T22:22:22.339Z,100.00
2022-11-26T22:24:54.975Z,100.00
2022-11-26T22:27:26.822Z,100.00
2022-11-26T22:29:58.539Z,100.00
2022-11-26T22:32:30.356Z,100.00
2022-11-26T22:35:02.416Z,100.00
2022-11-26T22:37:34.340Z,100.00
2022-11-26T22:40:07.569Z,100.00
2022-11-26T22:42:40.938Z,100.00
2022-11-26T22:45:13.763Z,100.00
2022-11-26T22:47:47.442Z,100.00
2022-11-26T22:50:21.669Z,100.00
2022-11-26T22:52:53.924Z,100.00
2022-11-26T22:55:25.708Z,100.00
2022-11-26T22:57:57.442Z,100.00
2022-11-26T23:00:51.096Z,100.00
2022-11-26T23:03:24.601Z,100.00
2022-11-26T23:05:57.319Z,100.00
2022-11-26T23:08:29.003Z,100.00
2022-11-26T23:11:05.440Z,100.00
2022-11-26T23:13:37.579Z,100.00
2022-11-26T23:16:11.158Z,100.00
2022-11-26T23:18:43.552Z,100.00
2022-11-26T23:21:17.386Z,100.00
2022-11-26T23:23:50.015Z,100.00
2022-11-26T23:26:26.541Z,100.00
2022-11-26T23:29:00.845Z,100.00
2022-11-26T23:31:34.909Z,100.00
2022-11-26T23:34:07.780Z,100.00
2022-11-26T23:36:37.927Z,100.00
2022-11-26T23:39:12.161Z,100.00
2022-11-26T23:41:44.765Z,100.00
2022-11-26T23:44:16.362Z,100.00
2022-11-26T23:46:48.411Z,100.00
2022-11-26T23:49:22.622Z,100.00
2022-11-26T23:51:54.263Z,100.00
2022-11-26T23:54:26.243Z,100.00
2022-11-26T23:56:58.022Z,100.00
2022-11-26T23:59:29.770Z,100.00
